UAL4935 PKWA-PKMJ
Flight info
| Callsign | UAL4935 |
|---|---|
| Flight time | 0h 41m |
| Altitude | 29000 |
| Route | CURCH WOZTI |
| Aircraft | B738/M-SDE2E3FGHIRWXY/LB1 |
Departure
| Time | 2026-05-06 15:50 |
|---|---|
| Airport | Bucholz Army Air Field (PKWA) |
Arrival
| Time | 2026-05-06 16:31 |
|---|---|
| Airport | Marshall Islands International Airport (PKMJ) |
| Time | Latitude | Longitude | Altitude | Speed | Heading |
|---|---|---|---|---|---|
| 2026-05-06 15:13 | 8.72736 | 167.74022 | -37 ft | 0 kts | 119° |
| 2026-05-06 15:42 | 8.72733 | 167.74027 | -46 ft | 1 kts | 118° |
| 2026-05-06 15:42 | 8.72728 | 167.74038 | -44 ft | 4 kts | 118° |
| 2026-05-06 15:43 | 8.72709 | 167.74073 | -47 ft | 6 kts | 118° |
| 2026-05-06 15:43 | 8.72687 | 167.74110 | -50 ft | 6 kts | 127° |
| 2026-05-06 15:43 | 8.72648 | 167.74137 | -44 ft | 8 kts | 155° |
| 2026-05-06 15:43 | 8.72587 | 167.74147 | -43 ft | 9 kts | 183° |
| 2026-05-06 15:44 | 8.72526 | 167.74131 | -37 ft | 10 kts | 198° |
| 2026-05-06 15:44 | 8.72451 | 167.74095 | -37 ft | 13 kts | 228° |
| 2026-05-06 15:44 | 8.72422 | 167.74014 | -46 ft | 12 kts | 255° |
| 2026-05-06 15:44 | 8.72380 | 167.73942 | -37 ft | 12 kts | 229° |
| 2026-05-06 15:45 | 8.72342 | 167.73869 | -41 ft | 12 kts | 251° |
| 2026-05-06 15:45 | 8.72319 | 167.73791 | -54 ft | 11 kts | 253° |
| 2026-05-06 15:45 | 8.72296 | 167.73716 | -47 ft | 11 kts | 253° |
| 2026-05-06 15:45 | 8.72273 | 167.73642 | -44 ft | 11 kts | 252° |
| 2026-05-06 15:46 | 8.72250 | 167.73569 | -44 ft | 11 kts | 253° |
| 2026-05-06 15:46 | 8.72227 | 167.73494 | -42 ft | 12 kts | 252° |
| 2026-05-06 15:46 | 8.72200 | 167.73409 | -43 ft | 13 kts | 252° |
| 2026-05-06 15:46 | 8.72170 | 167.73309 | -40 ft | 17 kts | 254° |
| 2026-05-06 15:47 | 8.72133 | 167.73196 | -44 ft | 17 kts | 251° |
| 2026-05-06 15:47 | 8.72101 | 167.73083 | -49 ft | 16 kts | 253° |
| 2026-05-06 15:47 | 8.72065 | 167.72969 | -41 ft | 19 kts | 251° |
| 2026-05-06 15:47 | 8.72023 | 167.72841 | -41 ft | 19 kts | 251° |
| 2026-05-06 15:48 | 8.71983 | 167.72706 | -42 ft | 23 kts | 253° |
| 2026-05-06 15:48 | 8.71936 | 167.72551 | -38 ft | 23 kts | 253° |
| 2026-05-06 15:48 | 8.71891 | 167.72400 | -37 ft | 22 kts | 252° |
| 2026-05-06 15:48 | 8.71813 | 167.72290 | -54 ft | 18 kts | 180° |
| 2026-05-06 15:49 | 8.71751 | 167.72318 | -41 ft | 9 kts | 101° |
| 2026-05-06 15:49 | 8.71787 | 167.72437 | -50 ft | 52 kts | 72° |
| 2026-05-06 15:49 | 8.71972 | 167.73037 | -42 ft | 126 kts | 73° |
| 2026-05-06 15:49 | 8.72282 | 167.74007 | 423 ft | 150 kts | 72° |
| 2026-05-06 15:50 | 8.72615 | 167.75017 | 1350 ft | 154 kts | 71° |
| 2026-05-06 15:50 | 8.72801 | 167.76179 | 1813 ft | 184 kts | 100° |
| 2026-05-06 15:50 | 8.72288 | 167.77471 | 2140 ft | 209 kts | 114° |
| 2026-05-06 15:50 | 8.71626 | 167.78834 | 2451 ft | 233 kts | 113° |
| 2026-05-06 15:51 | 8.70886 | 167.80351 | 2974 ft | 246 kts | 114° |
| 2026-05-06 15:51 | 8.70112 | 167.81933 | 3866 ft | 248 kts | 114° |
| 2026-05-06 15:51 | 8.69344 | 167.83498 | 4844 ft | 250 kts | 114° |
| 2026-05-06 15:51 | 8.68560 | 167.85100 | 5672 ft | 258 kts | 114° |
| 2026-05-06 15:52 | 8.67760 | 167.86734 | 6581 ft | 260 kts | 114° |
| 2026-05-06 15:52 | 8.66956 | 167.88378 | 7309 ft | 266 kts | 114° |
| 2026-05-06 15:52 | 8.66118 | 167.90088 | 8117 ft | 273 kts | 115° |
| 2026-05-06 15:52 | 8.65269 | 167.91824 | 8928 ft | 277 kts | 116° |
| 2026-05-06 15:53 | 8.64413 | 167.93573 | 9651 ft | 286 kts | 117° |
| 2026-05-06 15:53 | 8.63518 | 167.95399 | 10249 ft | 297 kts | 117° |
| 2026-05-06 15:53 | 8.62560 | 167.97357 | 10443 ft | 323 kts | 117° |
| 2026-05-06 15:53 | 8.61525 | 167.99470 | 10628 ft | 346 kts | 117° |
| 2026-05-06 15:54 | 8.60445 | 168.01675 | 11166 ft | 354 kts | 117° |
| 2026-05-06 15:54 | 8.59347 | 168.03920 | 11838 ft | 358 kts | 116° |
| 2026-05-06 15:54 | 8.58221 | 168.06223 | 12493 ft | 363 kts | 116° |
| 2026-05-06 15:54 | 8.57095 | 168.08526 | 13117 ft | 368 kts | 116° |
| 2026-05-06 15:55 | 8.55952 | 168.10860 | 13756 ft | 372 kts | 116° |
| 2026-05-06 15:55 | 8.54800 | 168.13214 | 14344 ft | 376 kts | 116° |
| 2026-05-06 15:55 | 8.53634 | 168.15596 | 14921 ft | 380 kts | 116° |
| 2026-05-06 15:55 | 8.52455 | 168.18002 | 15460 ft | 385 kts | 117° |
| 2026-05-06 15:56 | 8.51261 | 168.20441 | 15988 ft | 390 kts | 117° |
| 2026-05-06 15:56 | 8.50053 | 168.22904 | 16530 ft | 394 kts | 117° |
| 2026-05-06 15:56 | 8.48833 | 168.25393 | 17073 ft | 398 kts | 117° |
| 2026-05-06 15:56 | 8.47600 | 168.27909 | 17635 ft | 401 kts | 118° |
| 2026-05-06 15:57 | 8.46355 | 168.30450 | 18123 ft | 406 kts | 118° |
| 2026-05-06 15:57 | 8.45092 | 168.33023 | 18561 ft | 410 kts | 117° |
| 2026-05-06 15:57 | 8.43836 | 168.35586 | 19254 ft | 406 kts | 117° |
| 2026-05-06 15:57 | 8.42577 | 168.38155 | 19675 ft | 411 kts | 117° |
| 2026-05-06 15:58 | 8.41297 | 168.40763 | 20013 ft | 418 kts | 118° |
| 2026-05-06 15:58 | 8.40016 | 168.43373 | 20430 ft | 421 kts | 117° |
| 2026-05-06 15:58 | 8.38715 | 168.46024 | 20921 ft | 422 kts | 117° |
| 2026-05-06 15:58 | 8.37405 | 168.48693 | 21345 ft | 426 kts | 117° |
| 2026-05-06 15:59 | 8.36082 | 168.51388 | 21707 ft | 431 kts | 117° |
| 2026-05-06 15:59 | 8.34747 | 168.54107 | 22116 ft | 434 kts | 117° |
| 2026-05-06 15:59 | 8.33406 | 168.56839 | 22584 ft | 435 kts | 117° |
| 2026-05-06 15:59 | 8.32056 | 168.59588 | 22927 ft | 439 kts | 118° |
| 2026-05-06 16:00 | 8.30688 | 168.62371 | 23252 ft | 444 kts | 117° |
| 2026-05-06 16:00 | 8.29314 | 168.65167 | 23627 ft | 445 kts | 117° |
| 2026-05-06 16:00 | 8.27964 | 168.67987 | 23980 ft | 447 kts | 116° |
| 2026-05-06 16:00 | 8.26642 | 168.70839 | 24253 ft | 451 kts | 116° |
| 2026-05-06 16:01 | 8.25323 | 168.73721 | 24576 ft | 453 kts | 116° |
| 2026-05-06 16:01 | 8.24006 | 168.76609 | 24957 ft | 453 kts | 117° |
| 2026-05-06 16:01 | 8.22684 | 168.79502 | 25231 ft | 456 kts | 117° |
| 2026-05-06 16:01 | 8.21344 | 168.82424 | 25483 ft | 459 kts | 117° |
| 2026-05-06 16:02 | 8.19997 | 168.85354 | 25833 ft | 459 kts | 116° |
| 2026-05-06 16:02 | 8.18648 | 168.88281 | 26129 ft | 461 kts | 117° |
| 2026-05-06 16:02 | 8.17285 | 168.91235 | 26350 ft | 465 kts | 116° |
| 2026-05-06 16:02 | 8.15928 | 168.94172 | 26650 ft | 466 kts | 116° |
| 2026-05-06 16:03 | 8.14556 | 168.97143 | 26973 ft | 467 kts | 116° |
| 2026-05-06 16:03 | 8.13170 | 169.00142 | 27181 ft | 471 kts | 117° |
| 2026-05-06 16:03 | 8.11780 | 169.03147 | 27417 ft | 473 kts | 116° |
| 2026-05-06 16:03 | 8.10387 | 169.06161 | 27759 ft | 473 kts | 117° |
| 2026-05-06 16:04 | 8.08993 | 169.09176 | 28067 ft | 474 kts | 117° |
| 2026-05-06 16:04 | 8.07601 | 169.12189 | 28417 ft | 473 kts | 117° |
| 2026-05-06 16:04 | 8.06209 | 169.15197 | 28790 ft | 473 kts | 117° |
| 2026-05-06 16:04 | 8.04811 | 169.18220 | 28820 ft | 477 kts | 117° |
| 2026-05-06 16:05 | 8.02002 | 169.24287 | 28840 ft | 481 kts | 116° |
| 2026-05-06 16:05 | 7.99159 | 169.30428 | 28835 ft | 484 kts | 117° |
| 2026-05-06 16:06 | 7.96301 | 169.36597 | 28840 ft | 485 kts | 117° |
| 2026-05-06 16:06 | 7.93434 | 169.42784 | 28830 ft | 486 kts | 117° |
| 2026-05-06 16:07 | 7.90570 | 169.48962 | 28829 ft | 486 kts | 117° |
| 2026-05-06 16:07 | 7.87695 | 169.55159 | 28138 ft | 487 kts | 117° |
| 2026-05-06 16:08 | 7.86271 | 169.58230 | 27567 ft | 481 kts | 117° |
| 2026-05-06 16:08 | 7.84860 | 169.61272 | 26984 ft | 476 kts | 117° |
| 2026-05-06 16:08 | 7.83481 | 169.64244 | 26417 ft | 472 kts | 117° |
| 2026-05-06 16:08 | 7.82098 | 169.67224 | 25841 ft | 468 kts | 117° |
| 2026-05-06 16:09 | 7.80723 | 169.70184 | 25260 ft | 465 kts | 117° |
| 2026-05-06 16:09 | 7.79357 | 169.73125 | 24687 ft | 461 kts | 117° |
| 2026-05-06 16:09 | 7.78000 | 169.76045 | 24118 ft | 458 kts | 117° |
| 2026-05-06 16:09 | 7.76651 | 169.78947 | 23542 ft | 455 kts | 117° |
| 2026-05-06 16:10 | 7.75311 | 169.81829 | 22899 ft | 453 kts | 117° |
| 2026-05-06 16:10 | 7.73979 | 169.84693 | 22310 ft | 448 kts | 116° |
| 2026-05-06 16:10 | 7.72663 | 169.87523 | 21742 ft | 444 kts | 117° |
| 2026-05-06 16:10 | 7.71358 | 169.90330 | 21180 ft | 439 kts | 117° |
| 2026-05-06 16:11 | 7.70067 | 169.93104 | 20643 ft | 435 kts | 116° |
| 2026-05-06 16:11 | 7.68788 | 169.95852 | 20101 ft | 431 kts | 116° |
| 2026-05-06 16:11 | 7.67519 | 169.98580 | 19570 ft | 427 kts | 116° |
| 2026-05-06 16:11 | 7.66259 | 170.01285 | 19025 ft | 425 kts | 116° |
| 2026-05-06 16:12 | 7.65009 | 170.03968 | 18484 ft | 421 kts | 116° |
| 2026-05-06 16:12 | 7.63769 | 170.06631 | 17923 ft | 419 kts | 116° |
| 2026-05-06 16:12 | 7.62536 | 170.09279 | 17349 ft | 415 kts | 116° |
| 2026-05-06 16:12 | 7.61318 | 170.11893 | 16883 ft | 409 kts | 116° |
| 2026-05-06 16:13 | 7.60116 | 170.14474 | 16374 ft | 404 kts | 116° |
| 2026-05-06 16:13 | 7.58944 | 170.16989 | 15878 ft | 400 kts | 116° |
| 2026-05-06 16:13 | 7.57768 | 170.19514 | 15380 ft | 396 kts | 116° |
| 2026-05-06 16:13 | 7.56602 | 170.22014 | 14883 ft | 392 kts | 116° |
| 2026-05-06 16:14 | 7.55448 | 170.24488 | 14400 ft | 388 kts | 116° |
| 2026-05-06 16:14 | 7.54306 | 170.26938 | 13916 ft | 385 kts | 116° |
| 2026-05-06 16:14 | 7.53170 | 170.29373 | 13399 ft | 381 kts | 116° |
| 2026-05-06 16:14 | 7.52042 | 170.31791 | 12862 ft | 378 kts | 115° |
| 2026-05-06 16:15 | 7.50930 | 170.34175 | 12368 ft | 374 kts | 116° |
| 2026-05-06 16:15 | 7.49829 | 170.36534 | 11887 ft | 369 kts | 116° |
| 2026-05-06 16:15 | 7.48755 | 170.38834 | 11419 ft | 366 kts | 116° |
| 2026-05-06 16:15 | 7.47677 | 170.41145 | 10954 ft | 362 kts | 116° |
| 2026-05-06 16:16 | 7.46626 | 170.43397 | 10814 ft | 349 kts | 116° |
| 2026-05-06 16:16 | 7.45611 | 170.45573 | 10660 ft | 338 kts | 116° |
| 2026-05-06 16:16 | 7.44627 | 170.47681 | 10507 ft | 327 kts | 116° |
| 2026-05-06 16:16 | 7.43672 | 170.49727 | 10379 ft | 317 kts | 116° |
| 2026-05-06 16:17 | 7.42748 | 170.51704 | 10244 ft | 307 kts | 116° |
| 2026-05-06 16:17 | 7.41850 | 170.53625 | 10124 ft | 298 kts | 116° |
| 2026-05-06 16:17 | 7.40979 | 170.55489 | 10009 ft | 290 kts | 116° |
| 2026-05-06 16:17 | 7.40129 | 170.57307 | 9806 ft | 285 kts | 116° |
| 2026-05-06 16:18 | 7.39286 | 170.59110 | 9495 ft | 284 kts | 115° |
| 2026-05-06 16:18 | 7.38447 | 170.60904 | 9218 ft | 281 kts | 115° |
| 2026-05-06 16:18 | 7.37626 | 170.62659 | 8936 ft | 279 kts | 115° |
| 2026-05-06 16:18 | 7.36789 | 170.64448 | 8660 ft | 277 kts | 115° |
| 2026-05-06 16:19 | 7.35970 | 170.66201 | 8367 ft | 276 kts | 115° |
| 2026-05-06 16:19 | 7.35152 | 170.67949 | 8078 ft | 275 kts | 115° |
| 2026-05-06 16:19 | 7.34338 | 170.69689 | 7802 ft | 274 kts | 115° |
| 2026-05-06 16:19 | 7.33538 | 170.71399 | 7522 ft | 272 kts | 114° |
| 2026-05-06 16:20 | 7.32733 | 170.73121 | 7242 ft | 271 kts | 114° |
| 2026-05-06 16:20 | 7.31929 | 170.74841 | 6960 ft | 270 kts | 114° |
| 2026-05-06 16:20 | 7.31125 | 170.76560 | 6685 ft | 270 kts | 114° |
| 2026-05-06 16:20 | 7.30322 | 170.78275 | 6387 ft | 270 kts | 113° |
| 2026-05-06 16:21 | 7.29524 | 170.79980 | 6117 ft | 268 kts | 113° |
| 2026-05-06 16:21 | 7.28731 | 170.81672 | 5794 ft | 263 kts | 113° |
| 2026-05-06 16:21 | 7.27796 | 170.83218 | 5503 ft | 257 kts | 129° |
| 2026-05-06 16:21 | 7.26572 | 170.84494 | 5278 ft | 252 kts | 132° |
| 2026-05-06 16:22 | 7.25338 | 170.85741 | 5026 ft | 251 kts | 131° |
| 2026-05-06 16:22 | 7.24125 | 170.86970 | 4771 ft | 250 kts | 131° |
| 2026-05-06 16:22 | 7.22904 | 170.88215 | 4514 ft | 249 kts | 131° |
| 2026-05-06 16:22 | 7.21691 | 170.89457 | 4252 ft | 248 kts | 130° |
| 2026-05-06 16:23 | 7.20481 | 170.90701 | 3986 ft | 247 kts | 131° |
| 2026-05-06 16:23 | 7.19281 | 170.91938 | 3723 ft | 246 kts | 130° |
| 2026-05-06 16:23 | 7.18099 | 170.93158 | 3456 ft | 245 kts | 130° |
| 2026-05-06 16:23 | 7.16910 | 170.94386 | 3199 ft | 245 kts | 130° |
| 2026-05-06 16:24 | 7.15720 | 170.95616 | 2940 ft | 245 kts | 130° |
| 2026-05-06 16:24 | 7.14530 | 170.96848 | 2661 ft | 245 kts | 129° |
| 2026-05-06 16:24 | 7.13341 | 170.98078 | 2428 ft | 244 kts | 130° |
| 2026-05-06 16:24 | 7.12174 | 170.99284 | 2307 ft | 238 kts | 131° |
| 2026-05-06 16:25 | 7.11034 | 171.00462 | 2196 ft | 231 kts | 131° |
| 2026-05-06 16:25 | 7.09928 | 171.01606 | 2087 ft | 225 kts | 131° |
| 2026-05-06 16:25 | 7.08853 | 171.02716 | 1984 ft | 218 kts | 130° |
| 2026-05-06 16:25 | 7.07822 | 171.03786 | 1913 ft | 207 kts | 128° |
| 2026-05-06 16:26 | 7.06851 | 171.04838 | 1901 ft | 204 kts | 127° |
| 2026-05-06 16:26 | 7.05895 | 171.05885 | 1886 ft | 208 kts | 128° |
| 2026-05-06 16:26 | 7.04900 | 171.06972 | 1866 ft | 214 kts | 128° |
| 2026-05-06 16:26 | 7.03874 | 171.08089 | 1842 ft | 218 kts | 128° |
| 2026-05-06 16:27 | 7.02883 | 171.09242 | 1817 ft | 215 kts | 117° |
| 2026-05-06 16:27 | 7.02533 | 171.10640 | 1765 ft | 204 kts | 88° |
| 2026-05-06 16:27 | 7.02715 | 171.11998 | 1769 ft | 189 kts | 76° |
| 2026-05-06 16:27 | 7.03029 | 171.13240 | 1742 ft | 179 kts | 74° |
| 2026-05-06 16:28 | 7.03337 | 171.14440 | 1720 ft | 174 kts | 74° |
| 2026-05-06 16:28 | 7.03629 | 171.15593 | 1679 ft | 165 kts | 75° |
| 2026-05-06 16:28 | 7.03903 | 171.16687 | 1640 ft | 158 kts | 75° |
| 2026-05-06 16:28 | 7.04168 | 171.17752 | 1620 ft | 156 kts | 76° |
| 2026-05-06 16:29 | 7.04423 | 171.18768 | 1490 ft | 143 kts | 77° |
| 2026-05-06 16:29 | 7.04653 | 171.19694 | 1300 ft | 130 kts | 75° |
| 2026-05-06 16:29 | 7.04874 | 171.20587 | 1121 ft | 135 kts | 75° |
| 2026-05-06 16:29 | 7.05104 | 171.21519 | 944 ft | 136 kts | 76° |
| 2026-05-06 16:30 | 7.05325 | 171.22428 | 771 ft | 132 kts | 77° |
| 2026-05-06 16:30 | 7.05393 | 171.22721 | 710 ft | 132 kts | 75° |
| 2026-05-06 16:30 | 7.05770 | 171.24190 | 416 ft | 129 kts | 76° |
| 2026-05-06 16:30 | 7.05977 | 171.25070 | 275 ft | 130 kts | 75° |
| 2026-05-06 16:31 | 7.06200 | 171.25953 | 80 ft | 130 kts | 76° |
| 2026-05-06 16:31 | 7.06402 | 171.26794 | -1 ft | 112 kts | 77° |
| 2026-05-06 16:31 | 7.06507 | 171.27230 | 2 ft | 77 kts | 77° |
| 2026-05-06 16:31 | 7.06594 | 171.27591 | -1 ft | 23 kts | 75° |
| 2026-05-06 16:32 | 7.06622 | 171.27701 | 2 ft | 24 kts | 79° |
| 2026-05-06 16:32 | 7.06659 | 171.27858 | 1 ft | 23 kts | 76° |
| 2026-05-06 16:32 | 7.06699 | 171.28025 | 1 ft | 24 kts | 77° |
| 2026-05-06 16:32 | 7.06734 | 171.28081 | 1 ft | 7 kts | 13° |
| 2026-05-06 16:33 | 7.06779 | 171.28073 | 2 ft | 7 kts | 351° |
| 2026-05-06 16:33 | 7.06819 | 171.28084 | 4 ft | 6 kts | 53° |
| 2026-05-06 16:33 | 7.06833 | 171.28127 | 4 ft | 7 kts | 74° |
| 2026-05-06 16:34 | 7.06843 | 171.28172 | 4 ft | 0 kts | 76° |